createdAt,value
2019-03-21T00:01:57.600Z,4.10
2019-03-21T00:04:29.573Z,5.57
2019-03-21T00:07:01.642Z,5.23
2019-03-21T00:09:38.281Z,5.33
2019-03-21T00:12:13.514Z,4.80
2019-03-21T00:17:44.390Z,5.83
2019-03-21T00:22:50.302Z,5.23
2019-03-21T00:25:26.398Z,4.50
2019-03-21T00:30:32.704Z,5.60
2019-03-21T00:33:04.702Z,5.40
2019-03-21T00:35:38.519Z,5.00
2019-03-21T00:40:49.056Z,5.90
2019-03-21T00:43:21.306Z,5.37
2019-03-21T00:45:54.815Z,4.57
2019-03-21T00:48:26.977Z,4.60
2019-03-21T00:50:58.974Z,4.00
2019-03-21T00:53:31.032Z,4.03
2019-03-21T00:56:02.895Z,4.30
2019-03-21T00:58:34.887Z,4.53
2019-03-21T01:01:11.053Z,4.77
2019-03-21T01:03:43.313Z,4.60
2019-03-21T01:06:15.393Z,4.53
2019-03-21T01:11:18.769Z,4.50
2019-03-21T01:13:51.786Z,4.60
2019-03-21T01:16:24.783Z,5.53
2019-03-21T01:18:56.745Z,4.37
2019-03-21T01:21:28.847Z,4.83
2019-03-21T01:24:00.775Z,4.77
2019-03-21T01:26:32.783Z,4.73
2019-03-21T01:29:04.760Z,5.27
2019-03-21T01:31:36.633Z,5.30
2019-03-21T01:34:10.331Z,4.80
2019-03-21T01:36:43.318Z,4.80
2019-03-21T01:39:15.524Z,5.10
2019-03-21T01:41:47.386Z,4.55
2019-03-21T01:44:19.447Z,4.70
2019-03-21T01:46:51.306Z,4.90
2019-03-21T01:49:23.511Z,4.33
2019-03-21T01:54:26.546Z,4.80
2019-03-21T01:56:58.424Z,4.70
2019-03-21T01:59:30.366Z,4.30
2019-03-21T02:02:02.412Z,4.33
2019-03-21T02:06:10.576Z,4.13
2019-03-21T02:08:42.513Z,4.47
2019-03-21T02:11:14.649Z,4.47
2019-03-21T02:13:46.501Z,4.93
2019-03-21T02:18:49.473Z,4.87
2019-03-21T02:23:52.611Z,4.90
2019-03-21T02:26:24.555Z,4.30
2019-03-21T02:28:56.397Z,4.90
2019-03-21T02:31:28.251Z,5.17
2019-03-21T02:34:00.358Z,6.00
2019-03-21T02:39:05.418Z,6.17
2019-03-21T02:41:37.602Z,5.93
2019-03-21T02:44:09.522Z,5.83
2019-03-21T02:49:12.514Z,5.73
2019-03-21T02:51:44.495Z,6.20
2019-03-21T02:56:47.680Z,5.37
2019-03-21T02:59:19.646Z,6.00
2019-03-21T03:01:51.532Z,6.37
2019-03-21T03:04:23.372Z,6.60
2019-03-21T03:06:55.407Z,6.60
2019-03-21T03:09:27.359Z,5.00
2019-03-21T03:11:59.312Z,5.80
2019-03-21T03:14:31.424Z,5.17
2019-03-21T03:17:03.395Z,5.43
2019-03-21T03:19:35.365Z,6.03
2019-03-21T03:22:07.399Z,6.67
2019-03-21T03:24:39.387Z,6.03
2019-03-21T03:27:11.358Z,7.13
2019-03-21T03:29:43.271Z,7.80
2019-03-21T03:32:15.301Z,7.23
2019-03-21T03:34:47.301Z,6.77
2019-03-21T03:39:51.420Z,5.90
2019-03-21T03:42:23.350Z,6.33
2019-03-21T03:44:55.332Z,6.03
2019-03-21T03:47:27.443Z,6.23
2019-03-21T03:49:59.346Z,6.20
2019-03-21T03:52:31.293Z,6.90
2019-03-21T03:55:03.305Z,6.07
2019-03-21T03:57:35.326Z,6.13
2019-03-21T04:00:11.936Z,5.97
2019-03-21T04:02:44.118Z,6.17
2019-03-21T04:05:16.476Z,6.10
2019-03-21T04:13:07.312Z,7.13
2019-03-21T04:15:51.812Z,5.97
2019-03-21T04:18:13.338Z,7.07
2019-03-21T04:20:57.389Z,6.47
2019-03-21T04:26:21.494Z,5.80
2019-03-21T04:31:24.706Z,7.17
2019-03-21T04:34:05.895Z,6.30
2019-03-21T04:36:37.789Z,6.50
2019-03-21T04:39:11.518Z,7.47
2019-03-21T04:44:17.749Z,6.97
2019-03-21T04:46:49.606Z,6.73
2019-03-21T04:49:21.518Z,7.17
2019-03-21T04:51:53.387Z,7.00
2019-03-21T04:56:56.504Z,6.63
2019-03-21T04:59:28.499Z,5.43
2019-03-21T05:04:31.639Z,5.60
2019-03-21T05:07:03.875Z,5.80
2019-03-21T05:09:36.050Z,6.60
2019-03-21T05:12:10.285Z,6.30
2019-03-21T05:17:13.571Z,6.57
2019-03-21T05:19:45.525Z,7.73
2019-03-21T05:22:17.775Z,7.43
2019-03-21T05:24:50.853Z,5.70
2019-03-21T05:27:23.474Z,6.03
2019-03-21T05:32:26.686Z,6.53
2019-03-21T05:34:58.643Z,6.23
2019-03-21T05:37:30.579Z,6.60
2019-03-21T05:40:02.600Z,6.50
2019-03-21T05:42:34.581Z,6.30
2019-03-21T05:45:15.654Z,6.27
2019-03-21T05:47:48.063Z,6.53
2019-03-21T05:50:20.380Z,6.63
2019-03-21T05:52:52.551Z,6.13
2019-03-21T05:55:26.712Z,7.33
2019-03-21T06:00:51.557Z,8.60
2019-03-21T06:03:36.393Z,7.93
2019-03-21T06:09:22.338Z,7.30
2019-03-21T06:12:05.822Z,7.60
2019-03-21T06:15:04.292Z,7.67
2019-03-21T06:17:36.264Z,7.90
2019-03-21T06:20:56.511Z,9.77
2019-03-21T06:26:28.567Z,9.90
2019-03-21T06:29:00.486Z,9.97
2019-03-21T06:34:03.833Z,10.03
2019-03-21T06:36:36.783Z,11.20
2019-03-21T06:39:10.700Z,9.43
2019-03-21T06:41:42.825Z,10.50
2019-03-21T06:44:14.817Z,11.07
2019-03-21T06:46:49.658Z,11.40
2019-03-21T06:49:21.282Z,10.77
2019-03-21T06:51:53.495Z,11.40
2019-03-21T07:15:46.598Z,12.60
2019-03-21T07:18:18.641Z,12.53
2019-03-21T07:20:50.988Z,11.33
2019-03-21T07:23:24.772Z,11.73
2019-03-21T07:25:56.936Z,10.72
2019-03-21T07:28:29.774Z,10.33
2019-03-21T07:31:01.700Z,11.50
2019-03-21T07:33:35.465Z,11.35
2019-03-21T07:38:38.917Z,10.38
2019-03-21T07:41:11.335Z,10.80
2019-03-21T07:43:43.440Z,10.40
2019-03-21T07:46:15.476Z,11.03
2019-03-21T07:51:18.667Z,11.60
2019-03-21T07:53:50.696Z,11.08
2019-03-21T07:56:24.940Z,11.10
2019-03-21T07:58:58.288Z,11.10
2019-03-21T08:01:30.321Z,11.33
2019-03-21T08:04:03.152Z,10.68
2019-03-21T08:06:37.352Z,10.18
2019-03-21T08:09:11.048Z,9.98
2019-03-21T08:11:43.047Z,10.45
2019-03-21T08:14:18.359Z,10.03
2019-03-21T08:16:50.472Z,9.10
2019-03-21T08:19:24.299Z,9.85
2019-03-21T08:21:56.305Z,9.70
2019-03-21T08:24:28.414Z,9.75
2019-03-21T08:27:00.480Z,8.30
2019-03-21T08:29:33.031Z,8.43
2019-03-21T08:32:06.553Z,9.95
2019-03-21T08:34:38.614Z,8.53
2019-03-21T08:37:12.347Z,9.33
2019-03-21T08:39:44.297Z,9.55
2019-03-21T08:42:16.385Z,9.63
2019-03-21T08:44:51.285Z,8.53
2019-03-21T08:47:23.347Z,9.30
2019-03-21T08:52:27.711Z,8.73
2019-03-21T08:54:59.819Z,7.42
2019-03-21T08:57:31.987Z,7.80
2019-03-21T09:00:09.298Z,7.47
2019-03-21T09:02:41.363Z,7.35
2019-03-21T09:05:15.033Z,7.08
2019-03-21T09:07:47.047Z,6.78
2019-03-21T09:12:53.464Z,7.37
2019-03-21T09:15:25.505Z,6.03
2019-03-21T09:17:57.666Z,6.80
2019-03-21T09:20:30.113Z,6.20
2019-03-21T09:23:02.288Z,6.53
2019-03-21T09:25:34.333Z,6.65
2019-03-21T09:28:06.325Z,6.75
2019-03-21T09:30:38.288Z,6.72
2019-03-21T09:33:11.044Z,5.85
2019-03-21T09:35:43.802Z,5.75
2019-03-21T09:38:16.527Z,7.10
2019-03-21T09:40:51.867Z,6.50
2019-03-21T09:43:24.304Z,6.53
2019-03-21T09:48:30.260Z,6.12
2019-03-21T09:51:06.510Z,5.83
2019-03-21T09:53:38.690Z,4.97
2019-03-21T09:56:11.298Z,5.40
2019-03-21T09:58:44.727Z,5.83
2019-03-21T10:01:18.675Z,5.08
2019-03-21T10:03:51.418Z,5.37
2019-03-21T10:06:26.078Z,5.37
2019-03-21T10:08:58.292Z,4.97
2019-03-21T10:11:30.394Z,4.40
2019-03-21T10:14:02.343Z,4.00
2019-03-21T10:16:36.649Z,4.28
2019-03-21T10:19:08.748Z,4.30
2019-03-21T10:21:43.534Z,3.90
2019-03-21T10:24:14.533Z,3.90
2019-03-21T10:26:47.067Z,4.08
2019-03-21T10:29:19.323Z,3.62
2019-03-21T10:31:51.381Z,3.67
2019-03-21T10:34:23.329Z,3.35
2019-03-21T10:36:55.383Z,4.00
2019-03-21T10:39:29.492Z,3.55
2019-03-21T10:42:01.547Z,3.85
2019-03-21T10:44:33.836Z,3.95
2019-03-21T10:47:05.981Z,3.85
2019-03-21T10:49:38.298Z,2.95
2019-03-21T10:52:12.039Z,3.83
2019-03-21T10:54:45.297Z,3.10
2019-03-21T10:57:17.448Z,3.45
2019-03-21T11:02:21.289Z,3.37
2019-03-21T11:04:53.414Z,3.05
2019-03-21T11:09:55.307Z,2.67
2019-03-21T11:12:30.662Z,3.20
2019-03-21T11:15:03.878Z,3.20
2019-03-21T11:17:36.011Z,3.20
2019-03-21T11:20:09.285Z,3.02
2019-03-21T11:22:41.538Z,2.60
2019-03-21T11:25:13.756Z,2.87
2019-03-21T11:27:45.702Z,3.00
2019-03-21T11:30:35.295Z,2.87
2019-03-21T11:33:07.582Z,2.80
2019-03-21T11:35:40.289Z,3.00
2019-03-21T11:38:12.333Z,2.92
2019-03-21T11:40:44.444Z,3.50
2019-03-21T11:45:48.368Z,3.33
2019-03-21T11:50:54.790Z,3.30
2019-03-21T11:53:26.718Z,3.15
2019-03-21T11:55:59.296Z,3.17
2019-03-21T11:58:31.366Z,3.30
2019-03-21T12:01:04.890Z,3.10
2019-03-21T12:03:37.032Z,2.80
2019-03-21T12:06:09.308Z,3.40
2019-03-21T12:08:41.462Z,2.85
2019-03-21T12:13:44.572Z,3.27
2019-03-21T12:16:16.438Z,2.77
2019-03-21T12:18:48.459Z,2.83
2019-03-21T12:23:51.702Z,3.40
2019-03-21T12:26:23.677Z,3.42
2019-03-21T12:28:55.714Z,3.22
2019-03-21T12:31:27.786Z,2.85
2019-03-21T12:34:00.319Z,3.00
2019-03-21T12:36:34.597Z,3.10
2019-03-21T12:39:09.463Z,2.62
2019-03-21T12:44:14.374Z,2.65
2019-03-21T12:49:17.676Z,2.45
2019-03-21T12:51:51.364Z,2.10
2019-03-21T12:56:54.786Z,2.10
2019-03-21T12:59:26.695Z,2.12
2019-03-21T13:02:00.298Z,2.00
2019-03-21T13:04:32.322Z,1.92
2019-03-21T13:07:05.941Z,1.85
2019-03-21T13:09:37.983Z,2.17
2019-03-21T13:12:10.292Z,2.37
2019-03-21T13:17:13.539Z,1.92
2019-03-21T13:19:45.859Z,1.90
2019-03-21T13:22:17.911Z,2.20
2019-03-21T13:25:06.731Z,2.15
2019-03-21T13:27:38.697Z,2.08
2019-03-21T13:30:13.583Z,2.40
2019-03-21T13:32:47.094Z,2.60
2019-03-21T13:39:03.667Z,2.70
2019-03-21T13:41:38.356Z,2.80
2019-03-21T13:44:10.290Z,2.50
2019-03-21T13:49:27.746Z,2.42
2019-03-21T13:51:59.653Z,2.77
2019-03-21T13:54:31.574Z,2.37
2019-03-21T13:57:03.584Z,2.50
2019-03-21T14:02:29.361Z,2.47
2019-03-21T14:05:10.354Z,2.12
2019-03-21T14:13:21.308Z,2.55
2019-03-21T14:15:53.362Z,2.37
2019-03-21T14:22:07.303Z,2.20
2019-03-21T14:28:05.601Z,2.17
2019-03-21T14:30:37.951Z,1.82
2019-03-21T14:33:09.880Z,2.33
2019-03-21T14:35:43.610Z,2.10
2019-03-21T14:38:25.890Z,1.92
2019-03-21T14:43:21.304Z,2.00
2019-03-21T14:45:53.537Z,2.00
2019-03-21T14:48:29.911Z,2.10
2019-03-21T15:02:49.774Z,1.95
2019-03-21T15:05:21.897Z,2.10
2019-03-21T15:07:53.796Z,2.42
2019-03-21T15:10:26.016Z,2.15
2019-03-21T15:13:00.609Z,2.22
2019-03-21T15:15:32.583Z,1.80
2019-03-21T15:18:04.654Z,1.80
2019-03-21T15:20:37.078Z,2.02
2019-03-21T15:23:09.290Z,1.80
2019-03-21T15:25:41.371Z,1.85
2019-03-21T15:28:13.452Z,2.27
2019-03-21T15:30:46.327Z,1.80
2019-03-21T15:33:18.292Z,1.90
2019-03-21T15:35:51.694Z,1.67
2019-03-21T15:38:23.461Z,1.70
2019-03-21T15:43:27.287Z,2.15
2019-03-21T15:45:59.318Z,2.17
2019-03-21T15:48:31.348Z,2.77
2019-03-21T15:51:04.725Z,1.95
2019-03-21T15:53:37.450Z,2.10
2019-03-21T15:56:09.663Z,2.80
2019-03-21T15:58:41.881Z,2.20
2019-03-21T16:01:13.843Z,2.40
2019-03-21T16:03:45.803Z,2.47
2019-03-21T16:06:17.712Z,2.52
2019-03-21T16:08:49.814Z,2.25
2019-03-21T16:11:22.018Z,2.20
2019-03-21T16:13:54.264Z,5.95
2019-03-21T16:16:26.302Z,6.35
2019-03-21T16:18:58.322Z,2.92
2019-03-21T16:21:30.736Z,2.37
2019-03-21T16:24:05.396Z,3.20
2019-03-21T16:26:36.949Z,1.65
2019-03-21T16:29:10.348Z,2.58
2019-03-21T16:31:42.591Z,2.10
2019-03-21T16:34:14.806Z,2.37
2019-03-21T16:36:48.291Z,2.25
2019-03-21T16:39:20.470Z,2.00
2019-03-21T16:44:24.283Z,2.33
2019-03-21T16:46:56.356Z,2.30
2019-03-21T16:52:00.620Z,2.50
2019-03-21T16:54:32.791Z,2.60
2019-03-21T16:59:41.167Z,2.70
2019-03-21T17:02:13.298Z,2.70
2019-03-21T17:04:45.489Z,2.60
2019-03-21T17:09:49.313Z,3.37
2019-03-21T17:12:23.020Z,3.00
2019-03-21T17:14:55.189Z,2.90
2019-03-21T17:17:30.437Z,3.30
2019-03-21T17:20:03.834Z,3.20
2019-03-21T17:22:36.282Z,3.47
2019-03-21T17:25:09.596Z,3.15
2019-03-21T17:27:41.669Z,3.58
2019-03-21T17:30:16.507Z,3.02
2019-03-21T17:32:48.640Z,3.25
2019-03-21T17:35:22.364Z,2.62
2019-03-21T17:40:27.361Z,3.30
2019-03-21T17:42:59.247Z,3.10
2019-03-21T17:45:32.837Z,2.75
2019-03-21T17:48:05.981Z,3.02
2019-03-21T17:50:38.403Z,3.35
2019-03-21T17:53:10.661Z,3.00
2019-03-21T17:55:42.739Z,3.33
2019-03-21T17:58:14.743Z,4.03
2019-03-21T18:00:47.030Z,3.77
2019-03-21T18:03:19.297Z,3.80
2019-03-21T18:05:52.566Z,4.00
2019-03-21T18:08:24.741Z,3.87
2019-03-21T18:10:57.414Z,4.20
2019-03-21T18:13:29.699Z,5.15
2019-03-21T18:16:01.900Z,3.62
2019-03-21T18:18:33.971Z,3.58
2019-03-21T18:21:06.193Z,3.62
2019-03-21T18:23:38.440Z,3.80
2019-03-21T18:28:42.330Z,3.30
2019-03-21T18:31:14.362Z,3.70
2019-03-21T18:33:46.426Z,3.65
2019-03-21T18:38:58.744Z,4.00
2019-03-21T18:41:23.562Z,4.95
2019-03-21T18:43:55.727Z,4.42
2019-03-21T18:46:27.656Z,5.45
2019-03-21T18:48:59.753Z,5.58
2019-03-21T18:51:31.701Z,5.30
2019-03-21T18:54:04.057Z,4.85
2019-03-21T18:56:36.299Z,5.35
2019-03-21T18:59:08.423Z,4.45
2019-03-21T19:04:12.227Z,5.15
2019-03-21T19:06:44.323Z,4.95
2019-03-21T19:09:16.259Z,4.75
2019-03-21T19:11:48.559Z,4.78
2019-03-21T19:14:20.678Z,5.47
2019-03-21T19:16:52.982Z,4.75
2019-03-21T19:19:25.302Z,5.60
2019-03-21T19:21:57.778Z,4.62
2019-03-21T19:24:31.585Z,5.20
2019-03-21T19:27:03.700Z,4.60
2019-03-21T19:29:36.312Z,4.37
2019-03-21T19:32:08.394Z,4.42
2019-03-21T19:37:12.069Z,3.92
2019-03-21T19:39:45.802Z,3.87
2019-03-21T19:42:18.044Z,3.90
2019-03-21T19:44:54.224Z,4.70
2019-03-21T19:47:30.499Z,5.22
2019-03-21T19:50:03.874Z,5.03
2019-03-21T19:52:40.675Z,4.67
2019-03-21T19:55:30.162Z,4.22
2019-03-21T19:57:55.265Z,4.90
2019-03-21T20:00:29.299Z,4.42
2019-03-21T20:03:05.867Z,4.75
2019-03-21T20:05:40.530Z,3.95
2019-03-21T20:08:12.667Z,4.40
2019-03-21T20:10:44.627Z,4.37
2019-03-21T20:13:16.801Z,5.12
2019-03-21T20:15:49.057Z,5.03
2019-03-21T20:18:24.548Z,4.72
2019-03-21T20:20:58.542Z,5.00
2019-03-21T20:23:30.697Z,4.80
2019-03-21T20:26:04.964Z,4.78
2019-03-21T20:28:39.560Z,7.53
2019-03-21T20:31:11.680Z,7.30
2019-03-21T20:33:45.383Z,6.05
2019-03-21T20:38:49.074Z,5.67
2019-03-21T20:41:21.733Z,6.67
2019-03-21T20:43:54.124Z,5.00
2019-03-21T20:46:26.318Z,5.85
2019-03-21T20:49:01.469Z,5.10
2019-03-21T20:51:36.302Z,5.37
2019-03-21T20:54:08.406Z,5.10
2019-03-21T20:59:17.318Z,6.75
2019-03-21T21:01:49.273Z,5.83
2019-03-21T21:04:22.505Z,6.10
2019-03-21T21:06:54.824Z,5.62
2019-03-21T21:09:27.287Z,5.45
2019-03-21T21:11:59.407Z,5.08
2019-03-21T21:14:31.370Z,5.05
2019-03-21T21:17:03.373Z,5.85
2019-03-21T21:19:35.380Z,6.30
2019-03-21T21:22:07.433Z,6.30
2019-03-21T21:27:10.986Z,5.05
2019-03-21T21:29:44.818Z,4.92
2019-03-21T21:32:30.385Z,4.87
2019-03-21T21:37:45.817Z,5.03
2019-03-21T21:40:19.041Z,4.15
2019-03-21T21:42:52.451Z,4.53
2019-03-21T21:47:55.615Z,6.28
2019-03-21T21:50:27.723Z,4.83
2019-03-21T21:52:59.632Z,4.78
2019-03-21T21:55:31.706Z,4.35
2019-03-21T21:58:04.106Z,7.87
2019-03-21T22:00:36.305Z,8.98
2019-03-21T22:03:08.302Z,5.00
2019-03-21T22:05:40.490Z,5.22
2019-03-21T22:10:43.894Z,6.60
2019-03-21T22:13:15.844Z,6.87
2019-03-21T22:15:48.562Z,6.50
2019-03-21T22:18:20.659Z,4.78
2019-03-21T22:20:52.822Z,6.65
2019-03-21T22:23:24.792Z,5.58
2019-03-21T22:25:56.833Z,5.50
2019-03-21T22:28:28.712Z,5.55
2019-03-21T22:31:00.732Z,6.33
2019-03-21T22:33:34.309Z,4.95
2019-03-21T22:36:06.673Z,5.00
2019-03-21T22:38:46.290Z,5.40
2019-03-21T22:41:27.345Z,5.47
2019-03-21T22:44:03.281Z,5.75
2019-03-21T22:46:54.258Z,5.70
2019-03-21T22:49:26.421Z,5.03
2019-03-21T22:51:58.382Z,6.05
2019-03-21T22:54:30.809Z,9.70
2019-03-21T22:57:04.291Z,10.63
2019-03-21T22:59:36.526Z,6.42
2019-03-21T23:02:10.406Z,6.78
2019-03-21T23:07:16.547Z,7.53
2019-03-21T23:09:48.392Z,6.92
2019-03-21T23:12:20.430Z,7.92
2019-03-21T23:14:52.445Z,7.40
2019-03-21T23:20:06.549Z,6.50
2019-03-21T23:22:41.035Z,6.73
2019-03-21T23:25:17.329Z,6.47
2019-03-21T23:27:49.306Z,6.35
2019-03-21T23:32:52.697Z,7.10
2019-03-21T23:35:25.034Z,6.05
2019-03-21T23:37:57.297Z,6.65
2019-03-21T23:40:29.402Z,7.22
2019-03-21T23:43:02.313Z,6.37
2019-03-21T23:45:34.502Z,6.35
2019-03-21T23:48:08.325Z,7.07
2019-03-21T23:50:40.377Z,6.03
2019-03-21T23:53:12.293Z,6.95
2019-03-21T23:55:44.363Z,7.05
